Station Nord

KL  EN  DA
ASIAQ
Weather Now GREENLAND SURVEY
Updated [WGT/WGST] Temperature [°C] Wind [m/s] Air pressure [hPa] Relative humidity [%] Precipitation [mm]
Present Wind chill Speed Max
25.02 08:00n/an/an/an/an/an/an/a
25.02 07:00-20,7-36,313,9 ⇘17,5100381n/a
25.02 06:00-20,4-35,713,4 ⇘17,0100381n/a
25.02 05:00-20,8-35,511,8 ⇘14,4100381n/a
25.02 04:00-21,2-35,811,3 ⇘13,9100281n/a
25.02 03:00-20,7-36,113,4 ⇘15,4100181n/a
25.02 02:00-21,7-36,711,8 ⇘14,4100176n/a
25.02 01:00-21,7-35,910,3 ⇘12,9100271n/a
25.02 00:00-22,0-34,77,7 ⇒9,8100269n/a
24.02 23:00-22,9-34,76,2 ⇒7,7100272n/a
24.02 22:00-22,7-34,46,2 ⇒7,2100273n/a
24.02 21:00-22,9-34,76,2 ⇒7,7100273n/a
24.02 20:00-24,0-36,56,7 ⇒8,2100176n/a
24.02 19:00-25,0-37,86,7 ⇒7,7100178n/a
24.02 18:00-25,9-39,47,2 ⇒8,2100177n/a
24.02 17:00-26,2-40,17,7 ⇒8,8100177n/a
24.02 16:00-28,3-41,15,7 ⇒6,7100176n/a
24.02 15:00-27,5-38,84,6 ⇒5,1100177n/a
24.02 14:00-28,5-38,73,6 ⇒4,6100176n/a
24.02 13:00-29,4-41,24,6 ⇗5,1100176n/a
24.02 12:00-29,4-40,54,1 ⇗5,1100176n/a
24.02 11:00-29,3-38,93,1 ⇒4,1100175n/a
24.02 10:00-27,6-36,83,1 ⇒3,6100173n/a
24.02 09:00-30,1-39,83,1 ⇗4,6100174n/a
24.02 08:00-27,4-38,74,6 ⇒5,1100169n/a
Position: (81.603333333,-16.66333333)

[Back]